CY-0005 weather

Kornos Highway Strip
Larnarca District, Cyprus

Public forecast

Using degrees Celsius for public forecast. Weather courtesy of forecast.io.

Closest aviation weather report (METAR) to Kornos Highway Strip

Closest report is Larnaca International Airport, 11.1 nm (20.5 km) E. Retrieved 2019/12/08 20:30 UTC (19 minutes ago):

LCLK 082030Z 32005KT 9999 FEW025TCU SCT050 12/09 Q1013 NOSIG

Closest aviation forecast (TAF) to Kornos Highway Strip

Closest forecast is Larnaca International Airport, 11.1 nm (20.5 km) E. Retrieved 2019/12/08 18:33 UTC (2 hours ago):

TAF TAF LCLK 081730Z 0818/0918 33007KT 9999 FEW025 BECMG 0908/0910 03012KT PROB40 TEMPO 0912/0916 5000 SHRA PROB30 TEMPO 0912/0916 VRB18G30KT 4000 TSRA SCT010 SCT025CB